Terminal Aerodrome Forecast
Issued by NWS

Home | Current Version | Previous Version | Text Only | Print | Product List | Glossary On
Versions: 1 2 3 4 5 6 7 8 9 10 11 12 13 14 15 16 17 18 19 20 21 22 23 24 25 26
000
FTUS44 KOUN 131120
TAFCSM
TAF
KCSM 131120Z 1312/1412 07011KT P6SM SKC
     FM131400 12013KT P6SM FEW250
     FM131600 16015G23KT P6SM FEW250
     FM140000 16014KT P6SM FEW250
     FM140300 14018KT P6SM BKN250
     FM140600 16023KT 4SM BR OVC250=

USA.gov is the U.S. government's official web portal to all federal, state and local government web resources and services.